Time;durP1;ratioP1;P1;durP2;ratioP2;P2;SDS_P1;SDS_P2;PMS_P1;PMS_P2;Temp;Humidity;BMP_temperature;BMP_pressure;BME280_temperature;BME280_humidity;BME280_pressure;Samples;Min_cycle;Max_cycle;Signal;HPM_P1;HPM_P2
2022/01/10 00:01:09;;;;;;;16.85;8.52;;;5.60;78.00;;;;;;5023644;28;20561;-79
2022/01/10 00:03:37;;;;;;;15.27;7.90;;;5.60;77.90;;;;;;5030606;28;20049;-79
2022/01/10 00:06:03;;;;;;;13.13;7.85;;;5.60;77.90;;;;;;5014902;28;20038;-79
2022/01/10 00:08:31;;;;;;;12.52;8.20;;;5.60;77.70;;;;;;5016824;28;20053;-80
2022/01/10 00:10:58;;;;;;;10.57;7.18;;;5.50;77.50;;;;;;5015999;28;20506;-78
2022/01/10 00:13:24;;;;;;;15.00;7.30;;;5.50;78.00;;;;;;5015811;28;20045;-80
2022/01/10 00:15:51;;;;;;;13.63;7.65;;;5.40;77.20;;;;;;5019980;28;20053;-78
2022/01/10 00:18:18;;;;;;;18.17;8.05;;;5.40;77.10;;;;;;5021555;28;20038;-78
2022/01/10 00:20:45;;;;;;;11.45;7.72;;;5.40;77.10;;;;;;5029365;28;20124;-80
2022/01/10 00:23:12;;;;;;;13.45;7.60;;;5.30;77.00;;;;;;5017302;28;20112;-79
2022/01/10 00:25:39;;;;;;;14.35;8.00;;;5.20;76.90;;;;;;5020138;28;20072;-78
2022/01/10 00:28:05;;;;;;;13.98;7.95;;;5.20;77.00;;;;;;5026501;28;20046;-78
2022/01/10 00:30:32;;;;;;;12.55;8.15;;;5.10;77.00;;;;;;5017924;28;20045;-79
2022/01/10 00:32:59;;;;;;;11.57;8.07;;;5.10;77.20;;;;;;5015889;28;20132;-78
2022/01/10 00:35:26;;;;;;;16.58;8.80;;;5.10;77.40;;;;;;5016819;28;20049;-79
2022/01/10 00:37:53;;;;;;;16.58;8.55;;;5.00;77.40;;;;;;5021627;28;20037;-78
2022/01/10 00:40:20;;;;;;;18.75;9.65;;;5.00;77.60;;;;;;5029107;28;20045;-77
2022/01/10 00:42:56;;;;;;;13.25;7.72;;;5.00;77.80;;;;;;5021565;28;20416;-77
2022/01/10 00:45:26;;;;;;;16.35;8.93;;;5.00;77.90;;;;;;5012726;28;20065;-77
2022/01/10 00:47:58;;;;;;;16.58;9.05;;;4.90;78.00;;;;;;5020730;28;20045;-78
2022/01/10 00:50:27;;;;;;;12.77;8.07;;;4.90;78.10;;;;;;5028536;28;20050;-77
2022/01/10 00:52:55;;;;;;;14.65;8.73;;;4.90;78.30;;;;;;4995084;28;20041;-78
2022/01/10 00:55:22;;;;;;;14.23;8.88;;;4.90;78.40;;;;;;5022287;28;20046;-80
2022/01/10 00:57:49;;;;;;;14.38;8.50;;;4.90;78.50;;;;;;5029056;28;20056;-79
2022/01/10 01:00:17;;;;;;;14.15;8.13;;;4.90;78.60;;;;;;5028619;28;20057;-78
2022/01/10 01:02:44;;;;;;;16.13;9.07;;;4.90;78.70;;;;;;5019713;28;20083;-78
2022/01/10 01:05:16;;;;;;;14.82;8.63;;;4.90;78.70;;;;;;5025196;28;20517;-78
2022/01/10 01:07:43;;;;;;;16.80;8.77;;;5.00;78.80;;;;;;5011799;28;20124;-80
2022/01/10 01:13:10;;;;;;;15.85;7.88;;;5.00;78.80;;;;;;5017605;28;20041;-78
2022/01/10 01:15:56;;;;;;;15.70;8.45;;;5.00;78.70;;;;;;5008165;28;20068;-78
2022/01/10 01:19:50;;;;;;;15.23;8.70;;;5.00;78.70;;;;;;4975340;28;20046;-81
2022/01/10 01:24:07;;;;;;;14.50;8.93;;;5.00;78.50;;;;;;5017785;28;20053;-78
2022/01/10 01:26:39;;;;;;;17.42;8.15;;;5.00;78.40;;;;;;5030031;28;20041;-80
2022/01/10 01:29:09;;;;;;;12.77;7.72;;;5.00;78.40;;;;;;4996619;28;20412;-78
2022/01/10 01:31:39;;;;;;;19.40;7.75;;;5.00;78.30;;;;;;5020789;28;20037;-79
2022/01/10 01:34:06;;;;;;;14.43;7.65;;;5.00;78.20;;;;;;5017130;28;20038;-79
2022/01/10 01:36:34;;;;;;;13.50;7.40;;;5.00;78.00;;;;;;5009624;28;20092;-79
2022/01/10 01:39:10;;;;;;;11.85;7.78;;;4.90;77.80;;;;;;5019103;28;20046;-78
2022/01/10 01:41:41;;;;;;;10.93;7.10;;;4.90;77.70;;;;;;5017890;28;20544;-79
2022/01/10 01:44:08;;;;;;;9.43;6.93;;;4.90;77.60;;;;;;5012160;28;20498;-78
2022/01/10 01:46:36;;;;;;;12.75;7.80;;;4.80;77.50;;;;;;5007908;28;20062;-77
2022/01/10 01:49:06;;;;;;;14.75;8.50;;;4.80;77.50;;;;;;5019686;28;20713;-77
2022/01/10 01:51:33;;;;;;;13.95;7.40;;;4.80;77.60;;;;;;5026509;28;20049;-77
2022/01/10 01:54:01;;;;;;;10.15;7.80;;;4.70;77.60;;;;;;5011399;28;20077;-79
2022/01/10 01:56:29;;;;;;;12.48;7.45;;;4.70;77.70;;;;;;5009003;28;20052;-79
2022/01/10 01:58:56;;;;;;;9.30;6.82;;;4.70;77.70;;;;;;5019588;28;20136;-77
2022/01/10 02:01:26;;;;;;;14.77;7.78;;;4.60;77.70;;;;;;5012666;28;20046;-77
2022/01/10 02:03:53;;;;;;;16.95;7.85;;;4.60;77.70;;;;;;5010526;28;20140;-78
2022/01/10 02:06:27;;;;;;;11.48;6.88;;;4.60;77.60;;;;;;5024092;28;20053;-77
2022/01/10 02:08:54;;;;;;;13.10;6.75;;;4.60;77.60;;;;;;5029428;28;20046;-77
2022/01/10 02:11:21;;;;;;;10.07;7.75;;;4.80;77.80;;;;;;5029213;28;20155;-78
2022/01/10 02:13:49;;;;;;;12.98;7.35;;;4.50;77.60;;;;;;5030419;28;20064;-78
2022/01/10 02:16:54;;;;;;;13.48;6.78;;;4.50;77.60;;;;;;5017196;28;20045;-79
2022/01/10 02:19:36;;;;;;;15.40;7.90;;;4.40;77.40;;;;;;5015052;28;20077;-80
2022/01/10 02:22:03;;;;;;;10.80;6.45;;;4.40;77.40;;;;;;5008406;28;20038;-78
2022/01/10 02:24:40;;;;;;;9.20;6.65;;;4.40;77.40;;;;;;5038975;28;20042;-79
2022/01/10 02:27:10;;;;;;;10.82;6.60;;;4.30;77.30;;;;;;5014112;28;20042;-78
2022/01/10 02:29:37;;;;;;;11.55;6.30;;;4.30;77.30;;;;;;5011740;28;20050;-79
2022/01/10 02:32:04;;;;;;;11.73;6.78;;;4.30;77.40;;;;;;5027700;28;20045;-79
2022/01/10 02:34:31;;;;;;;9.82;6.38;;;4.20;77.30;;;;;;5015424;28;20066;-78
2022/01/10 02:37:00;;;;;;;9.75;5.90;;;4.20;77.40;;;;;;5003019;28;20101;-78
2022/01/10 02:39:30;;;;;;;;;;;4.10;77.30;;;;;;5011868;28;20045;-78
2022/01/10 02:41:58;;;;;;;10.57;6.30;;;4.30;77.50;;;;;;5012344;28;19921;-78
2022/01/10 02:44:25;;;;;;;13.85;7.07;;;4.10;77.30;;;;;;5007235;28;20042;-78
2022/01/10 02:46:51;;;;;;;14.32;7.57;;;4.10;77.40;;;;;;5030178;28;20084;-78
2022/01/10 02:49:32;;;;;;;13.95;6.28;;;4.10;77.60;;;;;;4999715;28;20613;-78
2022/01/10 02:52:00;;;;;;;9.55;6.70;;;4.00;77.70;;;;;;5011201;28;20042;-78
2022/01/10 02:54:29;;;;;;;13.73;7.30;;;4.00;77.70;;;;;;5002600;28;20052;-78
2022/01/10 02:56:57;;;;;;;14.30;6.65;;;4.10;77.90;;;;;;5013030;28;20041;-79
2022/01/10 02:59:26;;;;;;;11.55;7.35;;;4.00;78.00;;;;;;5030195;28;20041;-78
2022/01/10 03:01:54;;;;;;;7.13;6.18;;;4.00;78.10;;;;;;5021426;28;20096;-79
2022/01/10 03:04:23;;;;;;;14.20;7.03;;;4.00;78.10;;;;;;4997792;28;20077;-78
2022/01/10 03:06:50;;;;;;;13.40;6.43;;;4.00;78.10;;;;;;5024769;28;20053;-78
2022/01/10 03:09:17;;;;;;;9.38;5.63;;;4.00;78.10;;;;;;5009287;28;20522;-78
2022/01/10 03:11:44;;;;;;;10.30;6.45;;;4.00;78.10;;;;;;5008502;28;20054;-78
2022/01/10 03:14:12;;;;;;;12.15;6.35;;;4.00;78.10;;;;;;5003295;28;20041;-78
2022/01/10 03:16:40;;;;;;;12.23;6.18;;;4.00;78.10;;;;;;5024258;28;20405;-78
2022/01/10 03:19:07;;;;;;;9.77;5.93;;;4.00;78.00;;;;;;5009348;28;20042;-78
2022/01/10 03:21:35;;;;;;;9.98;6.07;;;4.00;77.90;;;;;;5003207;28;20108;-78
2022/01/10 03:24:02;;;;;;;9.63;5.90;;;4.00;77.90;;;;;;5021886;28;20099;-78
2022/01/10 03:26:31;;;;;;;8.48;5.68;;;4.00;77.80;;;;;;5020890;28;20631;-78
2022/01/10 03:29:01;;;;;;;12.20;5.85;;;4.00;77.70;;;;;;5020546;28;20478;-78
2022/01/10 03:31:29;;;;;;;10.52;5.50;;;4.00;77.70;;;;;;4998306;28;20053;-78
2022/01/10 03:33:58;;;;;;;12.45;6.03;;;3.90;77.70;;;;;;5024432;28;20112;-78
2022/01/10 03:36:28;;;;;;;12.68;6.22;;;3.90;77.60;;;;;;4996810;28;20049;-78
2022/01/10 03:38:55;;;;;;;7.90;6.13;;;3.90;77.60;;;;;;5017593;28;20034;-78
2022/01/10 03:41:22;;;;;;;8.13;5.40;;;3.90;77.60;;;;;;5008844;28;20056;-78
2022/01/10 03:43:49;;;;;;;9.65;5.50;;;3.80;77.50;;;;;;5013014;28;20050;-78
2022/01/10 03:46:16;;;;;;;9.45;6.30;;;3.80;77.50;;;;;;5016098;28;20161;-79
2022/01/10 03:48:43;;;;;;;9.32;5.75;;;3.80;77.60;;;;;;5013156;28;20073;-78
2022/01/10 03:51:11;;;;;;;8.52;5.18;;;3.80;77.60;;;;;;5017791;28;20041;-79
2022/01/10 03:53:38;;;;;;;12.85;5.85;;;3.80;77.70;;;;;;5014282;28;20430;-79
2022/01/10 03:56:05;;;;;;;12.02;5.40;;;3.80;77.70;;;;;;5020454;28;20057;-78
2022/01/10 03:58:34;;;;;;;10.00;5.38;;;3.70;77.80;;;;;;5012970;28;20085;-79
2022/01/10 04:01:02;;;;;;;8.15;6.03;;;3.70;77.90;;;;;;5027573;28;20125;-79
2022/01/10 04:03:31;;;;;;;18.30;7.13;;;3.70;77.90;;;;;;5020582;28;20048;-79
2022/01/10 04:06:06;;;;;;;14.25;6.35;;;3.70;78.00;;;;;;5000614;28;20041;-78
2022/01/10 04:08:34;;;;;;;15.40;7.05;;;3.70;78.10;;;;;;5016984;28;20052;-79
2022/01/10 04:11:01;;;;;;;12.30;6.03;;;3.70;78.30;;;;;;5019438;28;20057;-78
2022/01/10 04:13:30;;;;;;;10.73;6.35;;;3.80;78.40;;;;;;5027919;28;20509;-78
2022/01/10 04:15:59;;;;;;;9.15;6.25;;;3.80;78.50;;;;;;5015914;28;20132;-78
2022/01/10 04:18:26;;;;;;;13.23;6.22;;;3.80;78.40;;;;;;5006070;28;20572;-78
2022/01/10 04:20:53;;;;;;;10.02;5.75;;;3.80;78.50;;;;;;5018070;28;20046;-78
2022/01/10 04:23:20;;;;;;;12.20;6.53;;;3.80;78.30;;;;;;5011028;28;20702;-78
2022/01/10 04:25:48;;;;;;;14.88;7.50;;;3.80;78.30;;;;;;4990184;28;20050;-78
2022/01/10 04:28:17;;;;;;;13.50;6.32;;;3.80;78.20;;;;;;5016305;28;20046;-78
2022/01/10 04:30:44;;;;;;;16.17;7.53;;;3.80;78.20;;;;;;5028691;28;20076;-78
2022/01/10 04:33:17;;;;;;;13.80;7.88;;;3.80;78.20;;;;;;5031201;28;20045;-80
2022/01/10 04:35:45;;;;;;;14.43;6.07;;;3.80;78.30;;;;;;5019054;28;20132;-79
2022/01/10 04:38:12;;;;;;;12.23;7.03;;;3.80;78.20;;;;;;5014854;28;20053;-79
2022/01/10 04:40:40;;;;;;;12.68;6.53;;;3.80;78.20;;;;;;5028796;28;20558;-78
2022/01/10 04:43:07;;;;;;;16.42;8.23;;;3.80;78.30;;;;;;5014073;28;20137;-79
2022/01/10 04:45:34;;;;;;;19.02;7.93;;;3.80;78.40;;;;;;4984427;28;20047;-79
2022/01/10 04:48:02;;;;;;;13.20;6.63;;;3.80;78.50;;;;;;5027442;28;20044;-79
2022/01/10 04:53:05;;;;;;;14.80;8.48;;;3.90;78.70;;;;;;5025185;28;20049;-78
2022/01/10 04:55:32;;;;;;;19.95;8.70;;;3.90;78.90;;;;;;5029949;28;20068;-79
2022/01/10 04:58:00;;;;;;;18.73;9.43;;;4.00;79.10;;;;;;5031173;28;20053;-78
2022/01/10 05:00:27;;;;;;;17.92;9.35;;;3.90;79.40;;;;;;5024125;28;20079;-77
2022/01/10 05:02:54;;;;;;;25.25;9.77;;;4.00;79.50;;;;;;5013203;28;20064;-77
2022/01/10 05:05:21;;;;;;;35.05;9.85;;;4.00;79.80;;;;;;4995975;28;20045;-78
2022/01/10 05:07:49;;;;;;;30.70;9.68;;;4.00;79.90;;;;;;5022730;28;20065;-79
2022/01/10 05:10:17;;;;;;;36.45;10.70;;;4.10;80.10;;;;;;5017201;28;20045;-79
2022/01/10 05:12:45;;;;;;;43.08;10.55;;;4.10;80.00;;;;;;5017874;28;20191;-78
2022/01/10 05:15:12;;;;;;;46.40;10.38;;;4.10;80.00;;;;;;5015717;28;20042;-79
2022/01/10 05:17:39;;;;;;;29.40;9.20;;;4.20;80.00;;;;;;5027173;28;20037;-79
2022/01/10 05:20:08;;;;;;;30.40;10.00;;;4.20;79.90;;;;;;5029421;28;20041;-79
2022/01/10 05:22:35;;;;;;;50.10;9.95;;;4.20;79.80;;;;;;5029437;28;20394;-78
2022/01/10 05:25:03;;;;;;;38.10;10.25;;;4.30;79.80;;;;;;5015802;28;20042;-78
2022/01/10 05:27:32;;;;;;;44.15;10.30;;;4.30;79.60;;;;;;5008332;28;20053;-75
2022/01/10 05:30:04;;;;;;;26.77;10.23;;;4.30;79.60;;;;;;4997403;28;20149;-76
2022/01/10 05:32:31;;;;;;;31.95;9.77;;;4.30;79.60;;;;;;5002619;28;20486;-76
2022/01/10 05:35:05;;;;;;;34.30;10.02;;;4.30;79.60;;;;;;5007665;28;20112;-75
2022/01/10 05:37:32;;;;;;;28.80;10.77;;;4.30;79.60;;;;;;5006629;28;20133;-76
2022/01/10 05:40:01;;;;;;;26.48;9.10;;;4.30;79.60;;;;;;5006238;28;20050;-75
2022/01/10 05:42:27;;;;;;;29.75;9.93;;;4.30;79.60;;;;;;5004217;28;20136;-76
2022/01/10 05:44:54;;;;;;;34.80;10.05;;;4.30;79.60;;;;;;4983832;28;20058;-75
2022/01/10 05:47:21;;;;;;;27.05;10.18;;;4.30;79.60;;;;;;4999180;28;20046;-74
2022/01/10 05:50:00;;;;;;;33.75;11.32;;;4.40;79.70;;;;;;5021307;28;20144;-76
2022/01/10 05:52:33;;;;;;;26.33;10.23;;;4.40;79.70;;;;;;4990536;28;20422;-75
2022/01/10 05:55:02;;;;;;;27.45;9.43;;;4.40;79.70;;;;;;5010543;28;20042;-76
2022/01/10 05:57:29;;;;;;;22.33;10.50;;;4.40;79.70;;;;;;4998077;28;20551;-75
2022/01/10 05:59:57;;;;;;;26.95;10.40;;;4.40;79.70;;;;;;4994721;28;20449;-75
2022/01/10 06:02:27;;;;;;;40.00;10.65;;;4.40;79.70;;;;;;4999741;28;20092;-75
2022/01/10 06:04:59;;;;;;;17.13;7.80;;;4.40;79.80;;;;;;5001954;28;20077;-77
2022/01/10 06:07:36;;;;;;;34.05;10.85;;;4.40;79.80;;;;;;4997743;28;20046;-77
2022/01/10 06:10:05;;;;;;;40.40;11.18;;;4.40;79.70;;;;;;5002833;28;20045;-78
2022/01/10 06:12:33;;;;;;;34.42;11.02;;;4.40;79.80;;;;;;5027291;28;20092;-78
2022/01/10 06:15:00;;;;;;;30.65;10.05;;;4.50;79.90;;;;;;4994268;28;20037;-78
2022/01/10 06:17:27;;;;;;;43.30;11.32;;;4.40;79.90;;;;;;5027908;28;20103;-78
2022/01/10 06:19:54;;;;;;;37.47;11.15;;;4.50;80.10;;;;;;5012099;28;20042;-78
2022/01/10 06:22:22;;;;;;;38.15;12.98;;;4.50;80.10;;;;;;5010732;28;20473;-77
2022/01/10 06:24:49;;;;;;;29.77;11.60;;;4.50;80.00;;;;;;5006801;28;20050;-74
2022/01/10 06:27:17;;;;;;;27.83;11.48;;;4.50;80.00;;;;;;4991433;28;20514;-75
2022/01/10 06:29:45;;;;;;;32.78;10.38;;;4.60;80.10;;;;;;4976758;28;20096;-75
2022/01/10 06:32:12;;;;;;;37.63;10.75;;;4.50;80.00;;;;;;5004897;28;20079;-75
2022/01/10 06:34:39;;;;;;;49.90;12.18;;;4.50;80.00;;;;;;4973592;28;20044;-74
2022/01/10 06:37:07;;;;;;;54.85;12.95;;;4.50;80.00;;;;;;4987710;28;20034;-75
2022/01/10 06:39:41;;;;;;;41.38;10.40;;;4.50;80.00;;;;;;5003206;28;20038;-75
2022/01/10 06:42:08;;;;;;;38.03;11.07;;;4.60;79.80;;;;;;4986522;28;20050;-74
2022/01/10 06:44:37;;;;;;;52.25;12.85;;;4.60;79.80;;;;;;4995229;28;20047;-73
2022/01/10 06:47:04;;;;;;;30.42;10.27;;;4.60;79.80;;;;;;4999082;28;20092;-75
2022/01/10 06:49:31;;;;;;;32.83;10.88;;;4.60;79.80;;;;;;4981252;28;20058;-75
2022/01/10 06:51:58;;;;;;;38.45;10.82;;;4.60;79.90;;;;;;5002825;28;20042;-75
2022/01/10 06:54:25;;;;;;;32.53;10.95;;;4.60;79.90;;;;;;5004795;28;20080;-75
2022/01/10 06:56:58;;;;;;;39.72;11.75;;;4.60;80.00;;;;;;5005386;28;20464;-76
2022/01/10 06:59:27;;;;;;;31.85;11.52;;;4.60;80.00;;;;;;5010951;28;20046;-73
2022/01/10 07:01:58;;;;;;;38.00;12.60;;;4.70;80.00;;;;;;5010028;28;20041;-75
2022/01/10 07:04:27;;;;;;;30.30;10.68;;;4.70;80.00;;;;;;5008502;28;20131;-74
2022/01/10 07:06:57;;;;;;;29.65;10.40;;;4.70;79.90;;;;;;4988261;28;20054;-73
2022/01/10 07:09:27;;;;;;;39.22;11.38;;;4.70;79.80;;;;;;5011819;28;20072;-74
2022/01/10 07:11:59;;;;;;;26.27;11.07;;;4.70;79.90;;;;;;5022300;28;20037;-74
2022/01/10 07:14:33;;;;;;;;;;;4.70;79.90;;;;;;5003877;28;20124;-74
2022/01/10 07:17:06;;;;;;;30.17;11.02;;;4.70;80.20;;;;;;5011317;28;19945;-74
2022/01/10 07:19:33;;;;;;;38.83;11.52;;;4.70;79.60;;;;;;5008980;28;20136;-73
2022/01/10 07:22:00;;;;;;;34.10;11.57;;;4.70;79.70;;;;;;5022733;28;20042;-74
2022/01/10 07:24:27;;;;;;;38.92;10.35;;;4.70;79.70;;;;;;4986891;28;20093;-73
2022/01/10 07:26:54;;;;;;;39.63;13.18;;;4.70;79.70;;;;;;5025713;28;20041;-76
2022/01/10 07:29:21;;;;;;;35.50;12.18;;;4.70;79.80;;;;;;5010276;28;20056;-74
2022/01/10 07:31:48;;;;;;;31.70;12.23;;;4.70;79.80;;;;;;5008784;28;20518;-73
2022/01/10 07:34:15;;;;;;;32.03;10.88;;;4.70;79.80;;;;;;5006688;28;20037;-76
2022/01/10 07:36:43;;;;;;;27.10;10.68;;;4.70;79.80;;;;;;5011407;28;20038;-76
2022/01/10 07:39:11;;;;;;;26.45;11.15;;;4.70;79.80;;;;;;5009478;28;20730;-73
2022/01/10 07:41:42;;;;;;;26.38;12.63;;;4.70;79.80;;;;;;5008069;28;20045;-75
2022/01/10 07:44:18;;;;;;;31.65;11.35;;;4.70;79.80;;;;;;5008016;28;20453;-74
2022/01/10 07:46:45;;;;;;;28.33;10.65;;;4.70;80.40;;;;;;5007678;28;20129;-74
2022/01/10 07:49:11;;;;;;;26.52;11.20;;;4.70;79.70;;;;;;5008086;28;20082;-75
2022/01/10 07:51:38;;;;;;;21.20;10.07;;;4.70;79.60;;;;;;5010249;28;20046;-73
2022/01/10 07:54:05;;;;;;;29.88;11.13;;;4.70;79.50;;;;;;5016369;28;20107;-76
2022/01/10 07:56:32;;;;;;;20.08;9.52;;;4.70;79.40;;;;;;5021274;28;20517;-76
2022/01/10 07:58:59;;;;;;;26.35;10.98;;;4.70;79.20;;;;;;4990622;28;20517;-74
2022/01/10 08:01:25;;;;;;;27.92;11.35;;;4.70;79.10;;;;;;5007718;28;20061;-74
2022/01/10 08:03:53;;;;;;;24.45;10.43;;;4.70;79.00;;;;;;5007300;28;20037;-75
2022/01/10 08:06:21;;;;;;;26.48;11.55;;;4.70;78.80;;;;;;5018965;28;20065;-73
2022/01/10 08:08:48;;;;;;;27.27;11.13;;;4.60;78.60;;;;;;5008414;28;20505;-74
2022/01/10 08:11:15;;;;;;;21.80;11.90;;;4.60;78.50;;;;;;5006734;28;20042;-74
2022/01/10 08:13:42;;;;;;;21.52;10.90;;;4.60;78.50;;;;;;5001959;28;20078;-75
2022/01/10 08:16:10;;;;;;;17.40;10.05;;;4.50;78.40;;;;;;5008384;28;20042;-77
2022/01/10 08:18:37;;;;;;;21.75;10.55;;;4.50;78.30;;;;;;5005730;28;20030;-74
2022/01/10 08:21:05;;;;;;;20.63;10.95;;;4.50;78.20;;;;;;5005982;28;20053;-76
2022/01/10 08:23:32;;;;;;;19.55;10.40;;;4.40;78.20;;;;;;5014384;28;20524;-74
2022/01/10 08:25:59;;;;;;;18.02;10.73;;;4.40;78.80;;;;;;5027556;28;20151;-74
2022/01/10 08:28:26;;;;;;;18.92;10.82;;;4.40;78.10;;;;;;5002966;28;20417;-76
2022/01/10 08:30:53;;;;;;;17.70;9.68;;;4.30;78.00;;;;;;4991931;28;20867;-74
2022/01/10 08:33:20;;;;;;;19.17;10.05;;;4.30;78.10;;;;;;4991448;28;20801;-77
2022/01/10 08:35:48;;;;;;;16.95;10.18;;;4.30;78.10;;;;;;5006126;28;20041;-75
2022/01/10 08:38:15;;;;;;;20.60;11.73;;;4.20;78.00;;;;;;4998356;28;20049;-75
2022/01/10 08:40:42;;;;;;;19.20;10.68;;;4.20;78.10;;;;;;5022773;28;20045;-74
2022/01/10 08:43:10;;;;;;;19.75;10.55;;;4.10;78.20;;;;;;5011341;28;20038;-74
2022/01/10 08:45:40;;;;;;;20.75;11.27;;;4.10;78.20;;;;;;4990139;28;20054;-76
2022/01/10 08:48:07;;;;;;;20.38;11.60;;;4.10;78.20;;;;;;5002651;28;20076;-77
2022/01/10 08:50:35;;;;;;;21.27;11.48;;;4.10;78.30;;;;;;5006266;28;20506;-76
2022/01/10 08:53:04;;;;;;;17.08;10.40;;;4.10;78.40;;;;;;4999828;28;20049;-77
2022/01/10 08:55:31;;;;;;;20.25;9.98;;;4.00;78.50;;;;;;4990615;28;20498;-74
2022/01/10 08:57:58;;;;;;;18.60;9.60;;;4.00;78.60;;;;;;5043659;23;20053;-53
2022/01/10 09:00:26;;;;;;;19.00;9.07;;;4.00;78.70;;;;;;5024519;28;20045;-49
2022/01/10 09:02:53;;;;;;;26.15;15.55;;;4.00;78.90;;;;;;5029851;28;20045;-49
2022/01/10 09:05:20;;;;;;;22.42;14.82;;;4.00;79.00;;;;;;5029337;28;20505;-48
2022/01/10 09:07:48;;;;;;;24.10;14.85;;;4.00;79.00;;;;;;5028758;28;20096;-48
2022/01/10 09:10:14;;;;;;;24.58;15.27;;;4.00;79.10;;;;;;5026770;28;20111;-51
2022/01/10 09:12:41;;;;;;;22.13;14.00;;;4.10;79.10;;;;;;5042769;28;20419;-47
2022/01/10 09:15:09;;;;;;;24.85;14.95;;;4.10;79.10;;;;;;5027256;28;20083;-49
2022/01/10 09:17:36;;;;;;;24.70;14.52;;;4.10;79.10;;;;;;5027331;28;20120;-50
2022/01/10 09:20:03;;;;;;;25.88;16.70;;;4.10;79.20;;;;;;5021794;28;20583;-47
2022/01/10 09:22:30;;;;;;;31.83;19.42;;;4.00;79.20;;;;;;5026287;28;20046;-47
2022/01/10 09:24:57;;;;;;;35.72;21.67;;;4.10;79.30;;;;;;5029109;28;20045;-51
2022/01/10 09:27:23;;;;;;;32.40;19.00;;;4.10;79.30;;;;;;5027013;28;20100;-47
2022/01/10 09:29:50;;;;;;;29.33;16.42;;;4.10;80.10;;;;;;5021950;28;20706;-50
2022/01/10 09:32:17;;;;;;;23.30;13.95;;;4.10;79.70;;;;;;5016858;28;20054;-47
2022/01/10 09:34:44;;;;;;;21.80;12.48;;;4.10;80.00;;;;;;5026383;28;20042;-51
2022/01/10 09:37:11;;;;;;;22.92;10.00;;;4.20;80.40;;;;;;5027574;28;20049;-50
2022/01/10 09:39:38;;;;;;;19.33;10.57;;;4.20;80.60;;;;;;5026575;28;20178;-51
2022/01/10 09:42:05;;;;;;;25.42;15.80;;;4.30;80.70;;;;;;5025095;28;20121;-50
2022/01/10 09:44:34;;;;;;;21.75;14.35;;;4.40;80.70;;;;;;5022613;28;20763;-51
2022/01/10 09:47:01;;;;;;;26.45;15.95;;;4.40;80.60;;;;;;5021936;28;20048;-51
2022/01/10 09:49:28;;;;;;;26.85;16.45;;;4.50;80.50;;;;;;5020826;28;20095;-48
2022/01/10 09:51:55;;;;;;;32.38;19.50;;;4.50;81.00;;;;;;5036439;28;20078;-52
2022/01/10 09:54:21;;;;;;;32.85;18.17;;;4.60;80.30;;;;;;5030016;28;20049;-48
2022/01/10 09:56:49;;;;;;;38.58;21.33;;;4.60;80.10;;;;;;5032168;28;20099;-51
2022/01/10 09:59:16;;;;;;;26.02;15.60;;;4.60;80.00;;;;;;5036037;28;20055;-47
2022/01/10 10:01:49;;;;;;;23.80;13.55;;;4.70;79.90;;;;;;5045345;28;20041;-51
2022/01/10 10:04:18;;;;;;;23.92;12.13;;;4.70;79.80;;;;;;5021451;28;20128;-48
2022/01/10 10:06:46;;;;;;;20.95;11.85;;;4.70;79.90;;;;;;5026332;28;20451;-50
2022/01/10 10:09:14;;;;;;;22.48;11.93;;;4.70;79.80;;;;;;5033340;28;20452;-47
2022/01/10 10:11:51;;;;;;;20.25;10.95;;;4.80;79.90;;;;;;5018960;28;20068;-48
2022/01/10 10:14:21;;;;;;;18.70;9.50;;;4.80;79.90;;;;;;5026758;28;20077;-49
2022/01/10 10:16:49;;;;;;;18.33;10.77;;;4.80;79.80;;;;;;5027293;28;20047;-50
2022/01/10 10:19:23;;;;;;;17.38;10.27;;;4.80;79.70;;;;;;5034766;28;20041;-49
2022/01/10 10:21:52;;;;;;;17.55;10.50;;;4.80;79.60;;;;;;5025931;28;20048;-49
2022/01/10 10:24:20;;;;;;;17.58;11.00;;;4.80;79.60;;;;;;5035574;28;20559;-49
2022/01/10 10:26:47;;;;;;;16.85;10.23;;;4.80;79.60;;;;;;5028041;28;20038;-49
2022/01/10 10:29:17;;;;;;;20.25;12.43;;;4.90;79.70;;;;;;5047813;28;20106;-47
2022/01/10 10:31:50;;;;;;;17.92;10.35;;;4.90;79.60;;;;;;5033810;28;20498;-48
2022/01/10 10:34:19;;;;;;;18.35;11.18;;;4.90;79.60;;;;;;5026895;28;20048;-50
2022/01/10 10:37:01;;;;;;;17.35;10.80;;;4.90;79.60;;;;;;5024842;28;20099;-49
2022/01/10 10:39:28;;;;;;;20.85;11.30;;;4.90;79.60;;;;;;5031989;28;20107;-51
2022/01/10 10:41:58;;;;;;;23.27;12.00;;;4.90;79.50;;;;;;5030641;28;20390;-51
2022/01/10 10:44:26;;;;;;;18.70;12.13;;;4.90;79.60;;;;;;5032385;28;20505;-51
2022/01/10 10:46:52;;;;;;;24.75;12.23;;;4.90;79.70;;;;;;5040511;28;20107;-51
2022/01/10 10:49:21;;;;;;;22.73;11.82;;;4.90;79.80;;;;;;5051971;28;20052;-51
2022/01/10 10:51:50;;;;;;;19.27;10.43;;;4.90;79.90;;;;;;5040485;28;20449;-51
2022/01/10 10:54:18;;;;;;;19.65;12.02;;;4.90;80.10;;;;;;5034767;28;20110;-49
2022/01/10 10:56:45;;;;;;;28.13;15.90;;;5.00;80.40;;;;;;5022141;28;20050;-50
2022/01/10 10:59:12;;;;;;;24.35;13.27;;;5.00;80.60;;;;;;5020602;28;20595;-48
2022/01/10 11:01:41;;;;;;;24.20;13.52;;;5.10;80.70;;;;;;5024649;28;20099;-51
2022/01/10 11:04:11;;;;;;;27.25;14.85;;;5.10;80.70;;;;;;5043030;28;20171;-52
2022/01/10 11:06:39;;;;;;;25.27;15.02;;;5.10;80.70;;;;;;5031065;28;20455;-51
2022/01/10 11:09:11;;;;;;;20.27;13.82;;;5.20;81.40;;;;;;5025162;28;20051;-52
2022/01/10 11:11:40;;;;;;;17.40;10.63;;;5.20;80.70;;;;;;5032822;28;20053;-52
2022/01/10 11:14:10;;;;;;;21.15;12.23;;;5.30;80.80;;;;;;5029312;28;20069;-53
2022/01/10 11:16:39;;;;;;;18.27;11.38;;;5.30;80.70;;;;;;5047759;28;20049;-53
2022/01/10 11:19:24;;;;;;;19.98;11.23;;;5.30;80.80;;;;;;5034130;28;20402;-49
2022/01/10 11:22:02;;;;;;;18.50;11.02;;;5.40;81.00;;;;;;5028568;28;20029;-52
2022/01/10 11:24:48;;;;;;;23.17;10.77;;;5.40;80.80;;;;;;5036348;28;20060;-51
2022/01/10 11:27:40;;;;;;;19.33;10.65;;;5.50;81.20;;;;;;5027426;28;20045;-50
2022/01/10 11:30:26;;;;;;;18.05;9.65;;;5.50;81.20;;;;;;5023880;28;20716;-51
2022/01/10 11:33:03;;;;;;;18.95;10.23;;;5.60;81.20;;;;;;5028365;28;20038;-52
2022/01/10 11:35:56;;;;;;;18.10;9.30;;;5.60;80.80;;;;;;5020792;28;20572;-50
2022/01/10 11:38:42;;;;;;;19.75;10.73;;;5.60;80.80;;;;;;5022192;28;20052;-52
2022/01/10 11:41:17;;;;;;;21.23;10.75;;;5.70;81.10;;;;;;5023386;28;20095;-52
2022/01/10 11:44:07;;;;;;;18.65;9.13;;;5.70;80.90;;;;;;5029333;28;20052;-53
2022/01/10 11:46:41;;;;;;;16.63;8.95;;;5.70;81.00;;;;;;5019854;28;20060;-51
2022/01/10 11:49:13;;;;;;;16.67;10.35;;;5.80;80.80;;;;;;5022510;28;20049;-53
2022/01/10 11:51:41;;;;;;;;;;;5.80;80.90;;;;;;5025740;28;20061;-54
2022/01/10 11:54:41;;;;;;;16.27;8.82;;;5.90;81.30;;;;;;5023818;28;19925;-50
2022/01/10 11:57:13;;;;;;;18.20;10.48;;;5.90;80.90;;;;;;5020943;28;20044;-53
2022/01/10 11:59:53;;;;;;;24.23;11.77;;;5.90;80.70;;;;;;5030066;28;20095;-52
2022/01/10 12:02:23;;;;;;;20.15;11.20;;;6.00;80.80;;;;;;5030091;28;20041;-53
2022/01/10 12:04:58;;;;;;;21.95;11.15;;;6.00;80.90;;;;;;5027812;28;20053;-52
2022/01/10 12:07:27;;;;;;;18.17;10.73;;;6.10;81.00;;;;;;5026964;28;20576;-51
2022/01/10 12:10:00;;;;;;;19.58;11.40;;;6.10;81.00;;;;;;5025507;28;20045;-51
2022/01/10 12:12:30;;;;;;;19.13;11.88;;;6.10;81.00;;;;;;5020101;28;20056;-51
2022/01/10 12:14:57;;;;;;;23.27;12.80;;;6.10;81.00;;;;;;5020593;28;20100;-52
2022/01/10 12:17:28;;;;;;;23.05;11.63;;;6.20;81.10;;;;;;5024702;28;20045;-49
2022/01/10 12:19:58;;;;;;;21.08;10.50;;;6.20;81.10;;;;;;5024366;28;20060;-51
2022/01/10 12:22:26;;;;;;;20.13;10.23;;;6.30;81.20;;;;;;5020911;28;20060;-50
2022/01/10 12:24:53;;;;;;;17.95;10.05;;;6.30;81.10;;;;;;5023134;28;20057;-53
2022/01/10 12:27:21;;;;;;;14.63;9.20;;;6.40;81.10;;;;;;5026216;28;20107;-51
2022/01/10 12:29:47;;;;;;;18.23;9.02;;;6.40;81.00;;;;;;5027082;28;20046;-51
2022/01/10 12:32:14;;;;;;;15.65;7.88;;;6.40;81.10;;;;;;5019333;28;20083;-51
2022/01/10 12:34:44;;;;;;;15.18;8.40;;;6.50;81.00;;;;;;5023381;28;20104;-48
2022/01/10 12:37:11;;;;;;;13.88;8.32;;;6.50;81.10;;;;;;5029674;28;20103;-50
2022/01/10 12:39:39;;;;;;;16.83;9.45;;;6.50;81.20;;;;;;5020104;28;20061;-51
2022/01/10 12:42:07;;;;;;;19.80;8.60;;;6.60;81.20;;;;;;5024110;28;20361;-50
2022/01/10 12:44:34;;;;;;;12.88;8.00;;;6.60;81.30;;;;;;5022294;28;20488;-52
2022/01/10 12:47:00;;;;;;;20.30;9.38;;;6.70;81.40;;;;;;5021720;28;20080;-52
2022/01/10 12:49:27;;;;;;;16.33;8.70;;;6.80;81.50;;;;;;5020513;28;20103;-52
2022/01/10 12:51:57;;;;;;;15.32;8.32;;;6.80;81.40;;;;;;5022371;28;20056;-50
2022/01/10 12:54:30;;;;;;;13.68;6.93;;;6.90;81.10;;;;;;5031111;28;20863;-48
2022/01/10 12:57:02;;;;;;;15.23;7.63;;;7.00;80.80;;;;;;5034019;28;20045;-52
2022/01/10 12:59:31;;;;;;;16.05;7.45;;;7.10;80.50;;;;;;5041592;28;20069;-49
2022/01/10 13:02:00;;;;;;;14.65;7.88;;;7.10;80.30;;;;;;5049287;28;20120;-51